Terminal Aerodrome Forecast
Issued by NWS

Home | Current Version | Previous Version | Text Only | Print | Product List | Glossary On
Versions: 1 2 3 4 5 6 7 8 9 10 11 12 13 14 15 16 17 18
872
FTUS44 KEWX 291137
TAFSSF
TAF
KSSF 291137Z 2912/3012 13012KT P6SM SCT023 OVC028
     FM291700 16010KT P6SM SCT035 SCT250
     FM300200 35014G24KT P6SM SHRA BKN035
      TEMPO 3002/3005 TSRA BKN035CB
     FM300600 35010KT P6SM FEW025 BKN070=

USA.gov is the U.S. government's official web portal to all federal, state and local government web resources and services.